createdAt,value
2023-02-02T00:01:09.271Z,100.00
2023-02-02T00:05:06.903Z,100.00
2023-02-02T00:09:03.687Z,100.00
2023-02-02T00:13:23.972Z,100.00
2023-02-02T00:17:38.258Z,100.00
2023-02-02T00:20:57.039Z,100.00
2023-02-02T00:24:55.708Z,100.00
2023-02-02T00:28:50.977Z,100.00
2023-02-02T00:32:48.626Z,100.00
2023-02-02T00:36:48.529Z,100.00
2023-02-02T00:41:02.657Z,99.82
2023-02-02T00:44:41.916Z,99.64
2023-02-02T00:49:08.913Z,99.69
2023-02-02T00:53:23.157Z,99.60
2023-02-02T00:56:08.033Z,99.16
2023-02-02T00:59:12.128Z,99.29
2023-02-02T01:01:57.217Z,99.20
2023-02-02T01:04:42.354Z,98.83
2023-02-02T01:09:27.971Z,98.40
2023-02-02T01:12:58.528Z,98.67
2023-02-02T01:17:01.791Z,98.99
2023-02-02T01:20:36.705Z,99.67
2023-02-02T01:24:33.645Z,100.00
2023-02-02T01:34:06.044Z,100.00
2023-02-02T02:02:46.511Z,100.00
2023-02-02T02:11:36.786Z,100.00
2023-02-02T02:15:50.913Z,100.00
2023-02-02T02:19:08.846Z,100.00
2023-02-02T02:23:55.741Z,100.00
2023-02-02T02:28:42.842Z,100.00
2023-02-02T02:32:43.666Z,100.00
2023-02-02T02:37:02.760Z,100.00
2023-02-02T02:40:02.469Z,100.00
2023-02-02T02:42:57.372Z,100.00
2023-02-02T02:45:44.740Z,100.00
2023-02-02T02:48:31.443Z,100.00
2023-02-02T02:51:50.507Z,100.00
2023-02-02T02:54:45.745Z,100.00
2023-02-02T02:57:59.329Z,100.00
2023-02-02T03:01:48.295Z,100.00
2023-02-02T03:05:11.123Z,100.00
2023-02-02T03:08:04.959Z,100.00
2023-02-02T03:10:52.974Z,100.00
2023-02-02T03:13:42.065Z,100.00
2023-02-02T03:16:28.850Z,100.00
2023-02-02T03:19:15.297Z,100.00
2023-02-02T03:22:01.435Z,100.00
2023-02-02T03:24:47.701Z,100.00
2023-02-02T03:27:35.006Z,100.00
2023-02-02T03:40:58.211Z,100.00
2023-02-02T03:43:53.754Z,100.00
2023-02-02T03:47:49.228Z,100.00
2023-02-02T03:51:47.816Z,100.00
2023-02-02T03:55:43.051Z,100.00
2023-02-02T03:58:30.306Z,100.00
2023-02-02T04:01:17.406Z,100.00
2023-02-02T04:04:03.903Z,100.00
2023-02-02T04:06:50.577Z,100.00
2023-02-02T04:09:37.042Z,100.00
2023-02-02T04:12:23.746Z,100.00
2023-02-02T04:15:10.339Z,100.00
2023-02-02T04:17:56.818Z,100.00
2023-02-02T04:22:54.116Z,100.00
2023-02-02T04:25:59.787Z,100.00
2023-02-02T04:30:00.508Z,100.00
2023-02-02T04:33:59.485Z,100.00
2023-02-02T04:37:57.526Z,100.00
2023-02-02T04:41:53.162Z,100.00
2023-02-02T04:45:48.475Z,100.00
2023-02-02T04:50:12.797Z,100.00
2023-02-02T04:54:36.121Z,100.00
2023-02-02T04:58:30.951Z,100.00
2023-02-02T05:02:28.581Z,100.00
2023-02-02T05:06:26.755Z,100.00
2023-02-02T05:10:21.986Z,99.48
2023-02-02T05:14:20.433Z,99.03
2023-02-02T05:17:06.741Z,98.70
2023-02-02T05:19:53.431Z,98.62
2023-02-02T05:22:40.115Z,98.30
2023-02-02T05:25:26.866Z,98.28
2023-02-02T05:29:35.959Z,98.22
2023-02-02T05:32:22.663Z,98.44
2023-02-02T05:35:10.201Z,98.52
2023-02-02T05:37:59.019Z,98.22
2023-02-02T05:45:29.158Z,98.24
2023-02-02T05:48:15.617Z,98.46
2023-02-02T05:51:23.295Z,98.55
2023-02-02T05:54:09.591Z,98.10
2023-02-02T05:56:57.062Z,97.40
2023-02-02T05:59:43.497Z,97.20
2023-02-02T06:02:29.994Z,97.00
2023-02-02T06:05:16.815Z,96.71
2023-02-02T06:09:42.489Z,96.45
2023-02-02T06:12:28.855Z,96.42
2023-02-02T06:15:15.608Z,96.86
2023-02-02T06:18:02.468Z,96.77
2023-02-02T06:20:48.892Z,96.38
2023-02-02T06:23:35.666Z,96.46
2023-02-02T06:26:22.330Z,96.23
2023-02-02T06:29:12.701Z,95.87
2023-02-02T06:31:59.581Z,95.68
2023-02-02T06:34:45.972Z,95.63
2023-02-02T06:37:34.293Z,95.17
2023-02-02T06:40:21.038Z,94.67
2023-02-02T06:43:09.085Z,94.74
2023-02-02T06:45:58.039Z,94.04
2023-02-02T06:48:45.893Z,94.16
2023-02-02T06:51:32.138Z,93.88
2023-02-02T06:55:39.360Z,94.40
2023-02-02T06:58:26.702Z,94.62
2023-02-02T07:01:14.533Z,93.70
2023-02-02T07:04:01.211Z,93.41
2023-02-02T07:06:47.887Z,93.65
2023-02-02T07:09:34.588Z,93.61
2023-02-02T07:12:57.071Z,93.94
2023-02-02T07:16:54.578Z,95.96
2023-02-02T07:19:41.021Z,96.87
2023-02-02T07:22:27.445Z,97.46
2023-02-02T07:25:14.185Z,97.66
2023-02-02T07:28:02.453Z,97.99
2023-02-02T07:30:49.540Z,98.35
2023-02-02T07:33:41.264Z,98.67
2023-02-02T07:36:28.092Z,98.79
2023-02-02T07:39:14.614Z,98.99
2023-02-02T07:42:01.251Z,99.29
2023-02-02T07:44:47.579Z,99.31
2023-02-02T07:47:33.835Z,99.47
2023-02-02T07:50:31.248Z,99.95
2023-02-02T07:53:17.988Z,100.00
2023-02-02T07:56:11.509Z,100.00
2023-02-02T07:58:58.484Z,100.00
2023-02-02T08:01:45.286Z,100.00
2023-02-02T08:04:33.855Z,100.00
2023-02-02T08:07:32.351Z,100.00
2023-02-02T08:10:19.473Z,100.00
2023-02-02T08:13:06.338Z,100.00
2023-02-02T08:15:52.897Z,100.00
2023-02-02T08:18:39.993Z,100.00
2023-02-02T08:21:27.402Z,100.00
2023-02-02T08:24:13.983Z,100.00
2023-02-02T08:27:00.715Z,100.00
2023-02-02T08:29:47.999Z,100.00
2023-02-02T08:32:34.470Z,100.00
2023-02-02T08:35:21.940Z,100.00
2023-02-02T08:38:09.076Z,100.00
2023-02-02T08:40:56.167Z,100.00
2023-02-02T08:43:43.932Z,100.00
2023-02-02T08:46:31.170Z,100.00
2023-02-02T08:49:18.093Z,100.00
2023-02-02T08:52:05.253Z,100.00
2023-02-02T08:54:53.312Z,100.00
2023-02-02T08:57:40.143Z,100.00
2023-02-02T09:00:27.284Z,100.00
2023-02-02T09:03:17.129Z,100.00
2023-02-02T09:06:08.829Z,100.00
2023-02-02T09:08:55.520Z,100.00
2023-02-02T09:11:42.555Z,100.00
2023-02-02T09:14:29.397Z,99.65
2023-02-02T09:17:16.122Z,99.65
2023-02-02T09:20:02.858Z,99.57
2023-02-02T09:22:49.144Z,99.29
2023-02-02T09:25:35.627Z,98.69
2023-02-02T09:33:07.218Z,98.65
2023-02-02T09:35:54.259Z,98.58
2023-02-02T09:38:42.755Z,98.43
2023-02-02T09:46:11.961Z,98.12
2023-02-02T09:49:07.853Z,97.89
2023-02-02T09:52:02.248Z,97.87
2023-02-02T09:54:52.358Z,97.85
2023-02-02T09:57:45.123Z,97.34
2023-02-02T10:05:08.854Z,97.81
2023-02-02T10:08:02.677Z,97.65
2023-02-02T10:10:51.980Z,97.36
2023-02-02T10:13:44.017Z,97.32
2023-02-02T10:16:32.576Z,97.62
2023-02-02T10:19:20.787Z,97.69
2023-02-02T10:22:13.304Z,97.68
2023-02-02T10:25:00.167Z,97.21
2023-02-02T10:28:05.251Z,96.90
2023-02-02T10:31:01.374Z,96.82
2023-02-02T10:34:14.068Z,96.83
2023-02-02T10:37:17.549Z,97.12
2023-02-02T10:40:35.898Z,96.39
2023-02-02T10:44:06.269Z,96.08
2023-02-02T10:46:58.568Z,96.51
2023-02-02T10:49:46.013Z,96.40
2023-02-02T10:52:34.709Z,96.43
2023-02-02T10:55:28.539Z,96.77
2023-02-02T10:58:21.348Z,96.89
2023-02-02T11:01:12.026Z,96.69
2023-02-02T11:04:18.217Z,96.87
2023-02-02T11:07:05.527Z,97.03
2023-02-02T11:09:54.228Z,97.28
2023-02-02T11:12:47.112Z,97.51
2023-02-02T11:15:34.326Z,97.50
2023-02-02T11:18:30.125Z,97.71
2023-02-02T11:22:40.489Z,97.24
2023-02-02T11:27:05.009Z,97.80
2023-02-02T11:30:37.228Z,98.87
2023-02-02T11:35:04.374Z,99.88
2023-02-02T11:39:20.501Z,100.00
2023-02-02T11:43:19.696Z,100.00
2023-02-02T11:47:25.813Z,99.80
2023-02-02T11:51:28.640Z,99.88
2023-02-02T11:55:17.732Z,99.78
2023-02-02T11:59:04.335Z,99.56
2023-02-02T12:01:51.392Z,99.89
2023-02-02T12:04:41.029Z,99.31
2023-02-02T12:07:54.746Z,98.41
2023-02-02T12:10:51.643Z,98.00
2023-02-02T12:16:37.729Z,97.66
2023-02-02T12:19:57.590Z,97.88
2023-02-02T12:24:20.745Z,98.72
2023-02-02T12:27:22.395Z,99.40
2023-02-02T12:30:47.659Z,99.67
2023-02-02T12:33:44.154Z,99.75
2023-02-02T12:36:39.483Z,99.90
2023-02-02T12:40:00.375Z,99.67
2023-02-02T12:43:22.261Z,99.56
2023-02-02T12:55:17.670Z,99.96
2023-02-02T12:58:32.726Z,100.00
2023-02-02T13:01:54.504Z,99.81
2023-02-02T13:06:20.531Z,100.00
2023-02-02T13:20:02.246Z,99.51
2023-02-02T13:34:03.739Z,96.95
2023-02-02T13:37:57.270Z,96.25
2023-02-02T13:41:07.280Z,97.30
2023-02-02T13:44:43.393Z,98.30
2023-02-02T13:58:53.993Z,96.51
2023-02-02T14:02:31.089Z,91.58
2023-02-02T14:05:33.276Z,81.52
2023-02-02T14:08:34.114Z,76.17
2023-02-02T14:11:35.020Z,80.43
2023-02-02T14:14:32.562Z,84.12
2023-02-02T14:17:21.995Z,86.83
2023-02-02T14:22:44.689Z,88.94
2023-02-02T14:26:41.549Z,90.02
2023-02-02T14:30:40.368Z,90.74
2023-02-02T14:34:44.688Z,90.20
2023-02-02T14:38:47.757Z,90.18
2023-02-02T14:42:41.858Z,86.65
2023-02-02T14:46:41.371Z,87.48
2023-02-02T14:50:39.662Z,89.49
2023-02-02T14:54:39.924Z,90.93
2023-02-02T14:58:37.257Z,92.37
2023-02-02T15:02:37.348Z,92.64
2023-02-02T15:06:37.812Z,93.63
2023-02-02T15:21:06.838Z,93.41
2023-02-02T15:24:16.697Z,93.25
2023-02-02T15:28:39.272Z,94.00
2023-02-02T15:43:43.745Z,91.43
2023-02-02T15:46:40.219Z,91.15
2023-02-02T15:50:48.231Z,92.27
2023-02-02T15:54:52.016Z,93.00
2023-02-02T15:58:33.625Z,92.59
2023-02-02T16:17:35.605Z,91.68
2023-02-02T16:20:39.025Z,91.68
2023-02-02T16:25:43.345Z,92.43
2023-02-02T16:28:38.268Z,93.09
2023-02-02T16:31:25.717Z,93.94
2023-02-02T16:34:41.199Z,93.85
2023-02-02T16:37:33.168Z,93.62
2023-02-02T16:40:27.994Z,93.06
2023-02-02T16:43:21.120Z,92.92
2023-02-02T16:46:13.607Z,92.78
2023-02-02T16:49:00.921Z,92.58
2023-02-02T16:52:30.994Z,92.27
2023-02-02T16:55:19.488Z,92.49
2023-02-02T16:58:06.298Z,92.65
2023-02-02T17:01:15.652Z,92.49
2023-02-02T17:04:05.866Z,92.47
2023-02-02T17:06:53.609Z,92.22
2023-02-02T17:09:42.926Z,92.25
2023-02-02T17:12:35.328Z,92.34
2023-02-02T17:15:40.062Z,92.44
2023-02-02T17:18:26.641Z,92.27
2023-02-02T17:21:24.976Z,92.22
2023-02-02T17:24:12.058Z,92.45
2023-02-02T17:26:58.871Z,92.39
2023-02-02T17:29:46.445Z,92.38
2023-02-02T17:32:32.919Z,92.39
2023-02-02T17:37:41.454Z,92.77
2023-02-02T17:40:28.380Z,93.59
2023-02-02T17:43:16.231Z,93.68
2023-02-02T17:46:46.419Z,93.57
2023-02-02T17:49:33.042Z,93.72
2023-02-02T17:54:14.339Z,94.08
2023-02-02T18:08:13.830Z,93.78
2023-02-02T18:11:12.362Z,93.82
2023-02-02T18:13:59.413Z,94.39
2023-02-02T18:16:46.121Z,94.27
2023-02-02T18:19:32.892Z,93.71
2023-02-02T18:22:19.912Z,93.40
2023-02-02T18:25:07.273Z,92.97
2023-02-02T18:27:57.107Z,92.72
2023-02-02T18:30:44.700Z,92.47
2023-02-02T18:33:31.989Z,92.56
2023-02-02T18:36:21.839Z,92.55
2023-02-02T18:39:10.021Z,92.46
2023-02-02T18:41:57.170Z,92.44
2023-02-02T18:44:44.827Z,92.41
2023-02-02T18:47:31.331Z,92.67
2023-02-02T18:50:17.871Z,92.69
2023-02-02T18:53:04.256Z,92.84
2023-02-02T18:55:50.891Z,92.54
2023-02-02T18:58:49.185Z,92.48
2023-02-02T19:01:40.002Z,92.06
2023-02-02T19:04:29.788Z,92.31
2023-02-02T19:07:38.707Z,92.29
2023-02-02T19:10:29.436Z,92.52
2023-02-02T19:13:20.455Z,92.75
2023-02-02T19:16:17.912Z,92.74
2023-02-02T19:19:12.899Z,92.84
2023-02-02T19:22:07.757Z,92.91
2023-02-02T19:25:13.596Z,92.82
2023-02-02T19:28:25.632Z,92.75
2023-02-02T19:31:15.039Z,92.61
2023-02-02T19:34:03.948Z,91.93
2023-02-02T19:36:51.324Z,91.42
2023-02-02T19:39:37.892Z,91.28
2023-02-02T19:42:24.429Z,90.71
2023-02-02T19:45:33.525Z,90.70
2023-02-02T19:48:35.515Z,90.98
2023-02-02T19:51:44.435Z,91.40
2023-02-02T19:54:45.199Z,91.50
2023-02-02T19:57:37.082Z,91.73
2023-02-02T20:00:27.297Z,91.74
2023-02-02T20:03:23.935Z,91.92
2023-02-02T20:06:23.683Z,92.29
2023-02-02T20:09:17.076Z,92.64
2023-02-02T20:12:21.328Z,92.57
2023-02-02T20:15:27.205Z,92.70
2023-02-02T20:18:24.658Z,92.83
2023-02-02T20:21:24.054Z,93.12
2023-02-02T20:24:25.358Z,93.27
2023-02-02T20:27:19.451Z,93.28
2023-02-02T20:30:20.409Z,93.37
2023-02-02T20:33:21.278Z,93.48
2023-02-02T20:36:41.299Z,93.73
2023-02-02T20:39:27.641Z,94.40
2023-02-02T20:42:15.427Z,94.44
2023-02-02T20:45:05.963Z,93.89
2023-02-02T20:47:53.331Z,93.39
2023-02-02T20:50:40.637Z,93.16
2023-02-02T20:53:27.445Z,93.09
2023-02-02T20:56:14.282Z,93.06
2023-02-02T20:59:01.318Z,93.27
2023-02-02T21:01:50.127Z,93.32
2023-02-02T21:04:36.597Z,93.44
2023-02-02T21:07:23.346Z,93.58
2023-02-02T21:10:10.519Z,93.68
2023-02-02T21:12:57.399Z,93.64
2023-02-02T21:15:43.952Z,93.67
2023-02-02T21:18:30.683Z,93.79
2023-02-02T21:21:19.040Z,93.76
2023-02-02T21:24:05.971Z,94.21
2023-02-02T21:26:53.972Z,94.51
2023-02-02T21:29:40.507Z,94.44
2023-02-02T21:32:27.267Z,94.63
2023-02-02T21:35:15.172Z,94.71
2023-02-02T21:38:13.103Z,94.77
2023-02-02T21:41:00.081Z,94.73
2023-02-02T21:43:46.554Z,94.81
2023-02-02T21:46:37.177Z,94.23
2023-02-02T21:49:37.554Z,94.53
2023-02-02T21:52:26.012Z,94.66
2023-02-02T21:55:28.947Z,94.66
2023-02-02T21:58:18.126Z,94.76
2023-02-02T22:01:17.037Z,94.87
2023-02-02T22:04:03.803Z,95.22
2023-02-02T22:06:56.575Z,95.33
2023-02-02T22:09:45.327Z,95.48
2023-02-02T22:12:32.722Z,95.76
2023-02-02T22:15:24.680Z,95.80
2023-02-02T22:18:23.169Z,95.84
2023-02-02T22:21:12.985Z,95.87
2023-02-02T22:24:00.578Z,95.89
2023-02-02T22:26:47.908Z,96.09
2023-02-02T22:29:35.269Z,96.32
2023-02-02T22:32:21.876Z,96.25
2023-02-02T22:35:08.729Z,96.91
2023-02-02T22:37:55.228Z,97.25
2023-02-02T22:40:41.877Z,97.26
2023-02-02T22:43:28.660Z,97.32
2023-02-02T22:46:14.881Z,97.27
2023-02-02T22:49:01.596Z,97.12
2023-02-02T22:51:48.303Z,96.92
2023-02-02T22:54:34.647Z,96.94
2023-02-02T22:57:21.242Z,97.12
2023-02-02T23:00:21.949Z,97.10
2023-02-02T23:03:08.817Z,97.45
2023-02-02T23:05:55.598Z,97.57
2023-02-02T23:08:42.076Z,97.49
2023-02-02T23:11:28.554Z,97.67
2023-02-02T23:14:17.061Z,97.52
2023-02-02T23:17:03.919Z,97.81
2023-02-02T23:19:50.235Z,97.92
2023-02-02T23:22:36.846Z,97.80
2023-02-02T23:25:23.736Z,97.61
2023-02-02T23:28:10.696Z,97.59
2023-02-02T23:30:59.263Z,97.35
2023-02-02T23:33:46.571Z,97.27
2023-02-02T23:36:32.804Z,96.95
2023-02-02T23:39:19.790Z,96.68
2023-02-02T23:42:06.665Z,96.47
2023-02-02T23:44:53.350Z,96.47
2023-02-02T23:47:40.152Z,96.44
2023-02-02T23:50:28.113Z,96.38
2023-02-02T23:53:16.025Z,96.32
2023-02-02T23:56:02.652Z,96.48
2023-02-02T23:58:49.798Z,96.67
